Time,TemperatureF,DewpointF,PressureIn,WindDirection,WindDirectionDegrees,WindSpeedMPH,WindSpeedGustMPH,Humidity,HourlyPrecipIn,Conditions,Clouds,dailyrainin,SoftwareType,DateUTC
2013-01-04 03:21:00,26.2,7.3,29.79,West,260,5.0,11.2,44,0.00,,,-99.99,FreeWX 2.04,2013-01-04 08:21:00,
2013-01-04 03:23:00,26.2,7.3,29.79,West,260,4.0,8.7,44,0.00,,,-99.99,FreeWX 2.04,2013-01-04 08:23:00,
2013-01-04 03:26:00,26.2,7.3,29.79,West,260,5.0,11.2,44,0.00,,,-99.99,FreeWX 2.04,2013-01-04 08:26:00,
2013-01-04 03:31:00,26.2,7.3,29.79,West,260,5.0,12.1,44,0.00,,,-99.99,FreeWX 2.04,2013-01-04 08:31:00,
2013-01-04 03:36:00,26.2,7.3,29.79,West,263,5.0,13.0,44,0.00,,,-99.99,FreeWX 2.04,2013-01-04 08:36:00,
2013-01-04 03:41:00,26.4,7.5,29.79,West,264,4.0,10.5,44,0.00,,,-99.99,FreeWX 2.04,2013-01-04 08:41:00,
2013-01-04 03:46:00,26.2,7.3,29.79,West,262,4.0,8.7,44,0.00,,,-99.99,FreeWX 2.04,2013-01-04 08:46:00,
2013-01-04 03:51:00,26.2,7.3,29.76,West,259,5.0,9.6,44,0.00,,,-99.99,FreeWX 2.04,2013-01-04 08:51:00,
2013-01-04 03:56:00,26.4,7.0,29.76,West,263,5.0,9.6,43,0.00,,,-99.99,FreeWX 2.04,2013-01-04 08:56:00,
2013-01-04 08:29:00,23.9,4.6,29.74,West,261,4.0,13.4,43,0.00,,,-99.99,FreeWX 2.04,2013-01-04 13:29:00,
2013-01-04 08:34:00,23.9,4.6,29.76,West,265,5.0,9.6,43,0.00,,,-99.99,FreeWX 2.04,2013-01-04 13:34:00,
2013-01-04 08:39:00,23.9,4.6,29.76,West,271,5.0,7.4,43,0.00,,,-99.99,FreeWX 2.04,2013-01-04 13:39:00,
2013-01-04 08:44:00,23.9,4.6,29.76,West,274,4.0,9.2,43,0.00,,,-99.99,FreeWX 2.04,2013-01-04 13:44:00,
2013-01-04 08:49:00,23.9,4.6,29.76,West,276,4.0,10.5,43,0.00,,,-99.99,FreeWX 2.04,2013-01-04 13:49:00,
2013-01-04 08:54:00,24.1,4.8,29.76,West,274,4.0,7.8,43,0.00,,,-99.99,FreeWX 2.04,2013-01-04 13:54:00,
2013-01-04 08:59:00,24.3,5.0,29.76,West,271,5.0,8.3,43,0.00,,,-99.99,FreeWX 2.04,2013-01-04 13:59:00,
2013-01-04 09:04:00,24.6,5.4,29.76,West,273,5.0,8.7,43,0.00,,,-99.99,FreeWX 2.04,2013-01-04 14:04:00,
2013-01-04 09:09:00,25.0,5.7,29.76,West,270,5.0,11.0,43,0.00,,,-99.99,FreeWX 2.04,2013-01-04 14:09:00,
2013-01-04 09:14:00,25.5,6.3,29.76,West,263,4.0,6.9,43,0.00,,,-99.99,FreeWX 2.04,2013-01-04 14:14:00,
2013-01-04 09:19:00,25.9,5.9,29.76,West,264,4.0,8.3,42,0.00,,,-99.99,FreeWX 2.04,2013-01-04 14:19:00,
2013-01-04 09:24:00,26.2,6.3,29.76,West,276,4.0,9.6,42,0.00,,,-99.99,FreeWX 2.04,2013-01-04 14:24:00,
2013-01-04 09:29:00,26.2,5.7,29.76,West,271,4.0,10.1,41,0.00,,,-99.99,FreeWX 2.04,2013-01-04 14:29:00,
2013-01-04 09:34:00,26.2,5.7,29.76,West,270,4.0,10.5,41,0.00,,,-99.99,FreeWX 2.04,2013-01-04 14:34:00,
2013-01-04 09:39:00,26.1,5.5,29.76,West,278,4.0,6.7,41,0.00,,,-99.99,FreeWX 2.04,2013-01-04 14:39:00,
2013-01-04 09:44:00,26.1,5.5,29.76,West,271,4.0,11.0,41,0.00,,,-99.99,FreeWX 2.04,2013-01-04 14:44:00,
2013-01-04 09:49:00,26.1,5.5,29.79,West,275,4.0,8.3,41,0.00,,,-99.99,FreeWX 2.04,2013-01-04 14:49:00,
2013-01-04 09:54:00,25.9,5.5,29.79,West,271,3.0,6.7,41,0.00,,,-99.99,FreeWX 2.04,2013-01-04 14:54:00,
2013-01-04 09:59:00,25.7,5.9,29.79,West,277,4.0,7.4,42,0.00,,,-99.99,FreeWX 2.04,2013-01-04 14:59:00,
2013-01-04 10:04:00,25.5,5.7,29.79,West,280,4.0,6.9,42,0.00,,,-99.99,FreeWX 2.04,2013-01-04 15:04:00,
2013-01-04 10:09:00,25.3,5.5,29.79,West,273,3.0,5.8,42,0.00,,,-99.99,FreeWX 2.04,2013-01-04 15:09:00,
2013-01-04 10:14:00,25.2,5.4,29.79,West,275,3.0,5.4,42,0.00,,,-99.99,FreeWX 2.04,2013-01-04 15:14:00,
2013-01-04 10:19:00,25.9,5.9,29.79,West,277,4.0,9.6,42,0.00,,,-99.99,FreeWX 2.04,2013-01-04 15:19:00,
2013-01-04 10:24:00,26.4,6.4,29.79,West,269,4.0,6.3,42,0.00,,,-99.99,FreeWX 2.04,2013-01-04 15:24:00,
2013-01-04 10:29:00,27.1,7.2,29.79,West,264,3.0,5.4,42,0.00,,,-99.99,FreeWX 2.04,2013-01-04 15:29:00,
2013-01-04 10:34:00,27.7,7.2,29.79,West,275,3.0,7.4,41,0.00,,,-99.99,FreeWX 2.04,2013-01-04 15:34:00,
2013-01-04 10:40:00,28.0,6.8,29.79,West,271,4.0,7.4,40,0.00,,,-99.99,FreeWX 2.04,2013-01-04 15:40:00,
2013-01-04 10:45:00,29.1,7.9,29.79,West,261,4.0,6.3,40,0.00,,,-99.99,FreeWX 2.04,2013-01-04 15:45:00,
2013-01-04 10:50:00,30.2,8.8,29.79,WSW,254,2.0,4.5,40,0.00,,,-99.99,FreeWX 2.04,2013-01-04 15:50:00,
2013-01-04 10:55:00,30.6,6.8,29.79,WSW,258,3.0,13.0,36,0.00,,,-99.99,FreeWX 2.04,2013-01-04 15:55:00,
2013-01-04 11:00:00,30.6,5.5,29.79,WNW,287,4.0,8.3,34,0.00,,,-99.99,FreeWX 2.04,2013-01-04 16:00:00,
2013-01-04 11:05:00,30.7,5.0,29.79,WNW,293,4.0,6.9,33,0.00,,,-99.99,FreeWX 2.04,2013-01-04 16:05:00,
2013-01-04 11:10:00,30.9,5.2,29.79,West,277,4.0,10.1,33,0.00,,,-99.99,FreeWX 2.04,2013-01-04 16:10:00,
2013-01-04 11:15:00,31.3,4.8,29.79,WNW,294,4.0,10.1,32,0.00,,,-99.99,FreeWX 2.04,2013-01-04 16:15:00,
2013-01-04 11:20:00,31.6,5.2,29.79,WNW,293,4.0,7.8,32,0.00,,,-99.99,FreeWX 2.04,2013-01-04 16:20:00,
2013-01-04 11:25:00,32.0,5.5,29.79,WNW,285,4.0,10.1,32,0.00,,,-99.99,FreeWX 2.04,2013-01-04 16:25:00,
2013-01-04 11:30:00,31.6,4.5,29.79,WNW,282,5.0,8.7,31,0.00,,,-99.99,FreeWX 2.04,2013-01-04 16:30:00,
2013-01-04 11:35:00,31.5,4.3,29.79,West,281,5.0,11.0,31,0.00,,,-99.99,FreeWX 2.04,2013-01-04 16:35:00,
2013-01-04 11:40:00,31.6,5.2,29.79,WNW,293,5.0,9.6,32,0.00,,,-99.99,FreeWX 2.04,2013-01-04 16:40:00,
2013-01-04 11:45:00,32.0,5.5,29.79,WNW,287,5.0,7.8,32,0.00,,,-99.99,FreeWX 2.04,2013-01-04 16:45:00,
2013-01-04 11:50:00,32.2,5.0,29.79,West,270,5.0,7.8,31,0.00,,,-99.99,FreeWX 2.04,2013-01-04 16:50:00,
2013-01-04 11:55:00,32.5,6.1,29.79,West,266,4.0,8.3,32,0.00,,,-99.99,FreeWX 2.04,2013-01-04 16:55:00,
2013-01-04 12:00:00,32.5,5.4,29.79,West,272,4.0,7.8,31,0.00,,,-99.99,FreeWX 2.04,2013-01-04 17:00:00,
2013-01-04 12:05:00,31.8,4.6,29.79,West,272,5.0,9.2,31,0.00,,,-99.99,FreeWX 2.04,2013-01-04 17:05:00,
2013-01-04 12:10:00,31.5,5.0,29.79,West,270,5.0,8.7,32,0.00,,,-99.99,FreeWX 2.04,2013-01-04 17:10:00,
2013-01-04 12:15:00,32.2,5.7,29.79,West,261,4.0,6.3,32,0.00,,,-99.99,FreeWX 2.04,2013-01-04 17:15:00,
2013-01-04 12:20:00,32.2,5.7,29.79,West,268,5.0,9.2,32,0.00,,,-99.99,FreeWX 2.04,2013-01-04 17:20:00,
2013-01-04 12:25:00,31.3,4.8,29.79,WNW,285,5.0,11.6,32,0.00,,,-99.99,FreeWX 2.04,2013-01-04 17:25:00,
2013-01-04 12:30:00,31.5,5.0,29.79,WNW,288,5.0,7.4,32,0.00,,,-99.99,FreeWX 2.04,2013-01-04 17:30:00,
2013-01-04 12:35:00,32.0,5.5,29.76,West,281,5.0,9.2,32,0.00,,,-99.99,FreeWX 2.04,2013-01-04 17:35:00,
2013-01-04 12:40:00,32.5,6.1,29.76,WNW,284,5.0,8.7,32,0.00,,,-99.99,FreeWX 2.04,2013-01-04 17:40:00,
2013-01-04 12:45:00,32.5,6.1,29.76,WNW,286,5.0,9.2,32,0.00,,,-99.99,FreeWX 2.04,2013-01-04 17:45:00,
2013-01-04 12:50:00,32.7,5.5,29.76,West,278,5.0,11.6,31,0.00,,,-99.99,FreeWX 2.04,2013-01-04 17:50:00,
2013-01-04 12:55:00,32.2,5.0,29.76,West,277,5.0,9.2,31,0.00,,,-99.99,FreeWX 2.04,2013-01-04 17:55:00,
2013-01-04 13:00:00,31.6,5.2,29.76,West,277,5.0,8.3,32,0.00,,,-99.99,FreeWX 2.04,2013-01-04 18:00:00,
2013-01-04 13:05:00,31.3,4.8,29.76,West,278,5.0,15.2,32,0.00,,,-99.99,FreeWX 2.04,2013-01-04 18:05:00,
2013-01-04 13:10:00,31.5,5.0,29.76,WNW,282,6.0,12.5,32,0.00,,,-99.99,FreeWX 2.04,2013-01-04 18:10:00,
2013-01-04 13:15:00,31.8,5.4,29.76,West,280,6.0,15.2,32,0.00,,,-99.99,FreeWX 2.04,2013-01-04 18:15:00,
2013-01-04 13:20:00,32.2,5.7,29.76,West,280,6.0,12.1,32,0.00,,,-99.99,FreeWX 2.04,2013-01-04 18:20:00,
2013-01-04 13:25:00,32.0,5.5,29.76,West,276,6.0,11.6,32,0.00,,,-99.99,FreeWX 2.04,2013-01-04 18:25:00,
2013-01-04 13:30:00,32.0,5.5,29.76,West,273,6.0,10.1,32,0.00,,,-99.99,FreeWX 2.04,2013-01-04 18:30:00,
2013-01-04 13:35:00,32.2,5.7,29.76,West,278,5.0,11.2,32,0.00,,,-99.99,FreeWX 2.04,2013-01-04 18:35:00,
2013-01-04 13:40:00,32.0,5.5,29.76,West,277,5.0,9.2,32,0.00,,,-99.99,FreeWX 2.04,2013-01-04 18:40:00,
2013-01-04 13:45:00,32.4,5.9,29.76,West,275,5.0,9.2,32,0.00,,,-99.99,FreeWX 2.04,2013-01-04 18:45:00,
2013-01-04 13:50:00,32.5,6.1,29.74,West,279,5.0,9.2,32,0.00,,,-99.99,FreeWX 2.04,2013-01-04 18:50:00,
2013-01-04 13:55:00,32.7,6.1,29.74,WNW,291,5.0,9.6,32,0.00,,,-99.99,FreeWX 2.04,2013-01-04 18:55:00,
2013-01-04 14:00:00,32.9,6.3,29.74,WNW,282,5.0,10.5,32,0.00,,,-99.99,FreeWX 2.04,2013-01-04 19:00:00,
2013-01-04 14:05:00,33.1,5.7,29.74,West,265,5.0,8.7,31,0.00,,,-99.99,FreeWX 2.04,2013-01-04 19:05:00,
2013-01-04 14:10:00,33.3,5.9,29.74,West,264,5.0,8.3,31,0.00,,,-99.99,FreeWX 2.04,2013-01-04 19:10:00,
2013-01-04 14:15:00,33.3,5.9,29.74,West,267,4.0,9.6,31,0.00,,,-99.99,FreeWX 2.04,2013-01-04 19:15:00,
2013-01-04 14:20:00,33.1,5.7,29.74,West,274,4.0,13.9,31,0.00,,,-99.99,FreeWX 2.04,2013-01-04 19:20:00,
2013-01-04 14:25:00,33.1,5.7,29.74,West,278,5.0,9.6,31,0.00,,,-99.99,FreeWX 2.04,2013-01-04 19:25:00,
2013-01-04 14:30:00,32.7,5.5,29.74,WNW,282,5.0,8.3,31,0.00,,,-99.99,FreeWX 2.04,2013-01-04 19:30:00,
2013-01-04 14:35:00,32.7,6.1,29.74,WNW,288,4.0,6.3,32,0.00,,,-99.99,FreeWX 2.04,2013-01-04 19:35:00,
2013-01-04 14:40:00,32.7,6.1,29.74,West,277,4.0,7.8,32,0.00,,,-99.99,FreeWX 2.04,2013-01-04 19:40:00,
2013-01-04 14:45:00,32.5,6.1,29.74,West,270,5.0,10.5,32,0.00,,,-99.99,FreeWX 2.04,2013-01-04 19:45:00,
2013-01-04 14:50:00,32.5,6.1,29.74,West,275,5.0,9.6,32,0.00,,,-99.99,FreeWX 2.04,2013-01-04 19:50:00,
2013-01-04 14:55:00,32.4,5.9,29.74,West,276,5.0,8.7,32,0.00,,,-99.99,FreeWX 2.04,2013-01-04 19:55:00,
2013-01-04 15:00:00,32.2,5.7,29.74,West,279,5.0,11.6,32,0.00,,,-99.99,FreeWX 2.04,2013-01-04 20:00:00,
2013-01-04 15:05:00,32.2,5.7,29.74,West,277,4.0,11.0,32,0.00,,,-99.99,FreeWX 2.04,2013-01-04 20:05:00,
2013-01-04 15:10:00,32.0,5.5,29.74,West,275,4.0,9.2,32,0.00,,,-99.99,FreeWX 2.04,2013-01-04 20:10:00,
2013-01-04 15:15:00,32.0,5.5,29.74,West,278,4.0,9.6,32,0.00,,,-99.99,FreeWX 2.04,2013-01-04 20:15:00,
2013-01-04 15:20:00,32.0,6.3,29.76,West,278,4.0,9.6,33,0.00,,,-99.99,FreeWX 2.04,2013-01-04 20:20:00,
2013-01-04 15:25:00,32.0,6.3,29.76,West,268,4.0,9.2,33,0.00,,,-99.99,FreeWX 2.04,2013-01-04 20:25:00,
2013-01-04 15:30:00,31.8,5.4,29.76,West,273,4.0,10.1,32,0.00,,,-99.99,FreeWX 2.04,2013-01-04 20:30:00,
2013-01-04 15:35:00,31.6,5.9,29.76,West,273,4.0,7.8,33,0.00,,,-99.99,FreeWX 2.04,2013-01-04 20:35:00,
2013-01-04 15:40:00,31.6,5.9,29.76,West,265,4.0,7.4,33,0.00,,,-99.99,FreeWX 2.04,2013-01-04 20:40:00,
2013-01-04 15:45:00,31.5,5.7,29.76,West,271,4.0,11.0,33,0.00,,,-99.99,FreeWX 2.04,2013-01-04 20:45:00,
2013-01-04 15:50:00,31.3,5.5,29.76,West,277,4.0,10.5,33,0.00,,,-99.99,FreeWX 2.04,2013-01-04 20:50:00,
2013-01-04 15:55:00,31.3,5.5,29.76,West,269,5.0,10.1,33,0.00,,,-99.99,FreeWX 2.04,2013-01-04 20:55:00,
2013-01-04 16:00:00,31.1,6.1,29.76,West,267,5.0,14.3,34,0.00,,,-99.99,FreeWX 2.04,2013-01-04 21:00:00,
2013-01-04 16:05:00,30.7,5.7,29.76,West,271,5.0,11.0,34,0.00,,,-99.99,FreeWX 2.04,2013-01-04 21:05:00,
2013-01-04 16:10:00,30.6,5.5,29.76,West,270,5.0,11.2,34,0.00,,,-99.99,FreeWX 2.04,2013-01-04 21:10:00,
2013-01-04 16:15:00,30.4,5.4,29.76,West,263,5.0,13.4,34,0.00,,,-99.99,FreeWX 2.04,2013-01-04 21:15:00,
2013-01-04 16:20:00,30.2,5.2,29.76,West,267,5.0,8.3,34,0.00,,,-99.99,FreeWX 2.04,2013-01-04 21:20:00,
2013-01-04 16:25:00,29.8,5.5,29.76,West,276,5.0,12.1,35,0.00,,,-99.99,FreeWX 2.04,2013-01-04 21:25:00,
2013-01-04 16:30:00,29.7,5.4,29.76,West,273,5.0,7.4,35,0.00,,,-99.99,FreeWX 2.04,2013-01-04 21:30:00,
2013-01-04 16:35:00,29.5,5.2,29.76,West,268,5.0,10.5,35,0.00,,,-99.99,FreeWX 2.04,2013-01-04 21:35:00,
2013-01-04 16:40:00,29.1,5.5,29.76,West,268,4.0,7.4,36,0.00,,,-99.99,FreeWX 2.04,2013-01-04 21:40:00,
2013-01-04 16:45:00,28.9,5.9,29.76,West,268,4.0,8.7,37,0.00,,,-99.99,FreeWX 2.04,2013-01-04 21:45:00,
2013-01-04 16:50:00,28.8,5.9,29.79,West,268,4.0,8.7,37,0.00,,,-99.99,FreeWX 2.04,2013-01-04 21:50:00,
2013-01-04 16:55:00,28.4,5.5,29.79,West,267,4.0,7.4,37,0.00,,,-99.99,FreeWX 2.04,2013-01-04 21:55:00,
2013-01-04 17:00:00,28.2,5.9,29.79,West,268,4.0,10.5,38,0.00,,,-99.99,FreeWX 2.04,2013-01-04 22:00:00,
2013-01-04 17:05:00,28.0,6.3,29.79,West,266,4.0,6.9,39,0.00,,,-99.99,FreeWX 2.04,2013-01-04 22:05:00,
2013-01-04 17:10:00,27.9,6.1,29.79,West,264,4.0,5.8,39,0.00,,,-99.99,FreeWX 2.04,2013-01-04 22:10:00,
2013-01-04 17:15:00,27.7,6.6,29.79,West,267,4.0,6.9,40,0.00,,,-99.99,FreeWX 2.04,2013-01-04 22:15:00,
2013-01-04 17:20:00,27.5,7.0,29.79,West,263,4.0,5.8,41,0.00,,,-99.99,FreeWX 2.04,2013-01-04 22:20:00,
2013-01-04 17:25:00,27.1,6.6,29.79,West,261,4.0,8.7,41,0.00,,,-99.99,FreeWX 2.04,2013-01-04 22:25:00,
2013-01-04 17:30:00,27.1,6.6,29.79,West,269,4.0,6.9,41,0.00,,,-99.99,FreeWX 2.04,2013-01-04 22:30:00,
2013-01-04 17:35:00,27.1,6.6,29.82,West,280,4.0,7.4,41,0.00,,,-99.99,FreeWX 2.04,2013-01-04 22:35:00,
2013-01-04 17:40:00,27.0,6.4,29.82,West,276,3.0,4.9,41,0.00,,,-99.99,FreeWX 2.04,2013-01-04 22:40:00,
2013-01-04 17:45:00,26.6,6.6,29.82,West,264,3.0,6.9,42,0.00,,,-99.99,FreeWX 2.04,2013-01-04 22:45:00,
2013-01-04 17:50:00,26.6,6.6,29.82,West,268,3.0,6.9,42,0.00,,,-99.99,FreeWX 2.04,2013-01-04 22:50:00,
2013-01-04 17:55:00,26.4,6.4,29.82,West,272,3.0,6.3,42,0.00,,,-99.99,FreeWX 2.04,2013-01-04 22:55:00,
2013-01-04 18:00:00,26.2,6.3,29.82,West,268,2.0,5.4,42,0.00,,,-99.99,FreeWX 2.04,2013-01-04 23:00:00,
2013-01-04 18:05:00,25.9,5.9,29.82,WSW,254,2.0,5.4,42,0.00,,,-99.99,FreeWX 2.04,2013-01-04 23:05:00,
2013-01-04 18:10:00,25.7,6.3,29.82,WSW,254,2.0,6.9,43,0.00,,,-99.99,FreeWX 2.04,2013-01-04 23:10:00,
2013-01-04 18:15:00,25.7,6.3,29.82,WSW,257,2.0,5.8,43,0.00,,,-99.99,FreeWX 2.04,2013-01-04 23:15:00,
2013-01-04 18:20:00,25.7,6.3,29.82,WSW,257,3.0,6.3,43,0.00,,,-99.99,FreeWX 2.04,2013-01-04 23:20:00,
2013-01-04 18:25:00,25.7,6.3,29.82,West,263,3.0,6.9,43,0.00,,,-99.99,FreeWX 2.04,2013-01-04 23:25:00,
2013-01-04 18:30:00,25.5,6.3,29.82,WSW,258,3.0,8.7,43,0.00,,,-99.99,FreeWX 2.04,2013-01-04 23:30:00,
2013-01-04 18:35:00,25.5,6.6,29.85,WSW,257,4.0,7.4,44,0.00,,,-99.99,FreeWX 2.04,2013-01-04 23:35:00,
2013-01-04 18:40:00,25.5,6.6,29.85,West,266,4.0,6.9,44,0.00,,,-99.99,FreeWX 2.04,2013-01-04 23:40:00,
2013-01-04 18:45:00,25.5,6.6,29.85,West,268,4.0,4.9,44,0.00,,,-99.99,FreeWX 2.04,2013-01-04 23:45:00,
2013-01-04 18:50:00,25.2,5.9,29.85,West,262,3.0,4.9,43,0.00,,,-99.99,FreeWX 2.04,2013-01-04 23:50:00,
2013-01-04 18:55:00,25.0,6.3,29.85,West,260,3.0,5.4,44,0.00,,,-99.99,FreeWX 2.04,2013-01-04 23:55:00,
2013-01-04 19:00:00,25.0,6.3,29.85,West,262,4.0,5.8,44,0.00,,,-99.99,FreeWX 2.04,2013-01-05 00:00:00,
2013-01-04 19:05:00,25.2,6.3,29.85,West,265,4.0,5.8,44,0.00,,,-99.99,FreeWX 2.04,2013-01-05 00:05:00,
2013-01-04 19:10:00,25.0,6.3,29.85,West,263,4.0,6.7,44,0.00,,,-99.99,FreeWX 2.04,2013-01-05 00:10:00,
2013-01-04 19:15:00,25.2,6.8,29.85,West,265,4.0,7.8,45,0.00,,,-99.99,FreeWX 2.04,2013-01-05 00:15:00,
2013-01-04 19:20:00,25.0,6.6,29.85,West,272,4.0,6.9,45,0.00,,,-99.99,FreeWX 2.04,2013-01-05 00:20:00,
2013-01-04 19:25:00,25.2,6.8,29.85,West,266,4.0,9.2,45,0.00,,,-99.99,FreeWX 2.04,2013-01-05 00:25:00,
2013-01-04 19:30:00,25.2,6.8,29.85,West,263,4.0,6.9,45,0.00,,,-99.99,FreeWX 2.04,2013-01-05 00:30:00,
2013-01-04 19:35:00,25.0,6.6,29.88,West,270,4.0,8.3,45,0.00,,,-99.99,FreeWX 2.04,2013-01-05 00:35:00,
2013-01-04 19:40:00,25.0,6.6,29.88,West,275,4.0,5.8,45,0.00,,,-99.99,FreeWX 2.04,2013-01-05 00:40:00,
2013-01-04 19:45:00,24.8,6.4,29.88,West,274,4.0,6.3,45,0.00,,,-99.99,FreeWX 2.04,2013-01-05 00:45:00,
2013-01-04 19:50:00,24.6,6.3,29.88,West,275,3.0,6.9,45,0.00,,,-99.99,FreeWX 2.04,2013-01-05 00:50:00,
2013-01-04 19:55:00,24.8,7.0,29.88,West,277,4.0,10.5,46,0.00,,,-99.99,FreeWX 2.04,2013-01-05 00:55:00,
2013-01-04 20:00:00,24.6,6.8,29.88,West,276,4.0,9.6,46,0.00,,,-99.99,FreeWX 2.04,2013-01-05 01:00:00,
2013-01-04 20:05:00,24.6,6.8,29.88,West,276,4.0,6.7,46,0.00,,,-99.99,FreeWX 2.04,2013-01-05 01:05:00,
2013-01-04 20:10:00,24.6,6.8,29.88,West,279,4.0,7.8,46,0.00,,,-99.99,FreeWX 2.04,2013-01-05 01:10:00,
2013-01-04 20:15:00,24.4,6.6,29.88,West,271,4.0,5.8,46,0.00,,,-99.99,FreeWX 2.04,2013-01-05 01:15:00,
2013-01-04 20:20:00,24.3,6.4,29.91,West,265,3.0,5.4,46,0.00,,,-99.99,FreeWX 2.04,2013-01-05 01:20:00,
2013-01-04 20:25:00,24.3,7.0,29.91,West,272,3.0,6.3,47,0.00,,,-99.99,FreeWX 2.04,2013-01-05 01:25:00,
2013-01-04 20:30:00,24.1,6.8,29.91,West,273,3.0,4.5,47,0.00,,,-99.99,FreeWX 2.04,2013-01-05 01:30:00,
2013-01-04 20:35:00,23.9,6.6,29.91,West,261,3.0,7.4,47,0.00,,,-99.99,FreeWX 2.04,2013-01-05 01:35:00,
2013-01-04 20:40:00,23.7,7.0,29.91,WSW,249,3.0,4.9,48,0.00,,,-99.99,FreeWX 2.04,2013-01-05 01:40:00,
2013-01-04 20:45:00,23.7,7.0,29.91,WSW,245,3.0,8.7,48,0.00,,,-99.99,FreeWX 2.04,2013-01-05 01:45:00,
2013-01-04 20:50:00,23.5,6.8,29.91,WSW,246,2.0,6.3,48,0.00,,,-99.99,FreeWX 2.04,2013-01-05 01:50:00,